Sao Mateus, Brazil
Current Conditions -  °F | °C
As of 7:00 PM on Tuesday 25 Nov 2014 (Local Time) from SBIP Reporting Station
Overcast Overcast  
Wind Chill: 77°   Ceiling: 2000
Heat Index: 78°   Visibility: 6mi
Dew Point: 73°   Wind: 14mph
Humidity: 89%   Direction: 50°NE
Pressure: 29.83"   Gusts: NA
Location:  18.73°S, 41.27°W
Report Text: SBIP 252100Z 05012KT 9999 BKN020 OVC080 25/23 Q1010
Loading
Personal Weather Stations






























Interactive Weather Map New forecast layout! Learn more

10-Day Weather Forecast

Advertisements
Track Severe Weather on mobile